Time;durP1;ratioP1;P1;durP2;ratioP2;P2;SDS_P1;SDS_P2;PMS_P1;PMS_P2;Temp;Humidity;BMP_temperature;BMP_pressure;BME280_temperature;BME280_humidity;BME280_pressure;Samples;Min_cycle;Max_cycle;Signal;HPM_P1;HPM_P2
2020/12/14 00:00:12;;;;;;;30.05;16.83;;;;;;;;;;5037647;28;20017;-94
2020/12/14 00:02:38;;;;;;;28.05;17.58;;;;;;;;;;5039028;28;20041;-94
2020/12/14 00:05:05;;;;;;;27.27;17.13;;;;;;;;;;5039010;28;20036;-95
2020/12/14 00:07:31;;;;;;;29.65;16.52;;;;;;;;;;5038987;28;20026;-94
2020/12/14 00:09:59;;;;;;;28.48;16.95;;;;;;;;;;5038647;28;20104;-94
2020/12/14 00:12:25;;;;;;;27.25;16.17;;;;;;;;;;5037733;28;20033;-93
2020/12/14 00:24:01;;;;;;;29.02;16.92;;;;;;;;;;5038775;28;20080;-96
2020/12/14 00:26:40;;;;;;;26.75;16.42;;;;;;;;;;5038666;28;20017;-95
2020/12/14 00:29:06;;;;;;;27.58;16.58;;;;;;;;;;5040388;28;20025;-96
2020/12/14 00:34:35;;;;;;;;;;;;;;;;;;5038993;28;20120;-95
2020/12/14 00:37:04;;;;;;;29.67;17.48;;;;;;;;;;5038470;28;19933;-95
2020/12/14 00:39:31;;;;;;;29.10;17.33;;;;;;;;;;5038466;28;20029;-95
2020/12/14 00:41:57;;;;;;;27.50;16.73;;;;;;;;;;5038290;28;20041;-95
2020/12/14 00:44:24;;;;;;;32.00;17.75;;;;;;;;;;5038555;28;20112;-94
2020/12/14 00:47:27;;;;;;;31.35;18.20;;;;;;;;;;5038044;28;20040;-95
2020/12/14 00:49:53;;;;;;;32.75;18.48;;;;;;;;;;5038177;28;20021;-95
2020/12/14 00:52:19;;;;;;;33.50;18.45;;;;;;;;;;5037705;28;20026;-94
2020/12/14 00:54:46;;;;;;;32.00;17.85;;;;;;;;;;5037985;28;20041;-94
2020/12/14 00:57:12;;;;;;;31.15;16.92;;;;;;;;;;5037884;28;20021;-95
2020/12/14 00:59:38;;;;;;;31.95;17.85;;;;;;;;;;5037947;28;20029;-94
2020/12/14 01:02:04;;;;;;;29.98;17.00;;;;;;;;;;5036943;28;20046;-95
2020/12/14 01:04:30;;;;;;;29.75;17.52;;;;;;;;;;5037834;28;20044;-95
2020/12/14 01:06:56;;;;;;;30.90;17.77;;;;;;;;;;5037042;28;20022;-94
2020/12/14 01:09:22;;;;;;;30.60;17.98;;;;;;;;;;5038071;28;20088;-94
2020/12/14 01:11:49;;;;;;;31.38;17.92;;;;;;;;;;5038338;28;20329;-96
2020/12/14 01:14:15;;;;;;;28.90;16.88;;;;;;;;;;5041606;28;20033;-95
2020/12/14 01:16:42;;;;;;;28.52;16.80;;;;;;;;;;5043137;28;20025;-96
2020/12/14 01:19:08;;;;;;;29.63;16.50;;;;;;;;;;5044069;28;20021;-95
2020/12/14 01:21:39;;;;;;;31.48;18.02;;;;;;;;;;5042108;28;20025;-96
2020/12/14 01:24:08;;;;;;;37.08;21.98;;;;;;;;;;5037838;28;20044;-94
2020/12/14 01:26:35;;;;;;;33.67;17.90;;;;;;;;;;5036664;28;20411;-95
2020/12/14 01:29:01;;;;;;;28.00;16.52;;;;;;;;;;5037835;28;20316;-94
2020/12/14 01:34:30;;;;;;;27.02;16.92;;;;;;;;;;5038224;28;20522;-94
2020/12/14 01:36:56;;;;;;;25.42;16.42;;;;;;;;;;5036606;28;20057;-94
2020/12/14 01:39:22;;;;;;;30.80;18.05;;;;;;;;;;5037705;28;20021;-93
2020/12/14 01:41:49;;;;;;;27.10;16.85;;;;;;;;;;5037581;28;20033;-93
2020/12/14 01:44:15;;;;;;;27.42;17.20;;;;;;;;;;5038051;28;20323;-96
2020/12/14 01:46:44;;;;;;;29.58;17.90;;;;;;;;;;5037432;28;20160;-95
2020/12/14 01:49:11;;;;;;;27.77;17.33;;;;;;;;;;5037535;28;20479;-94
2020/12/14 01:51:38;;;;;;;28.65;16.35;;;;;;;;;;5037353;28;20030;-96
2020/12/14 01:54:17;;;;;;;28.50;17.25;;;;;;;;;;5037266;28;20311;-93
2020/12/14 01:56:43;;;;;;;32.17;17.52;;;;;;;;;;5037473;28;20018;-95
2020/12/14 01:59:10;;;;;;;29.95;17.35;;;;;;;;;;5037471;28;20029;-95
2020/12/14 02:01:36;;;;;;;31.90;17.63;;;;;;;;;;5037066;28;20045;-95
2020/12/14 02:04:02;;;;;;;26.30;16.00;;;;;;;;;;5037210;28;20108;-94
2020/12/14 02:06:28;;;;;;;30.15;17.27;;;;;;;;;;5037516;28;20030;-96
2020/12/14 02:08:54;;;;;;;28.85;17.42;;;;;;;;;;5037458;28;20029;-94
2020/12/14 02:11:20;;;;;;;30.27;18.45;;;;;;;;;;5037469;28;20026;-94
2020/12/14 02:13:47;;;;;;;29.38;18.23;;;;;;;;;;5037346;28;20029;-95
2020/12/14 02:16:13;;;;;;;30.58;17.85;;;;;;;;;;5036329;28;20021;-93
2020/12/14 02:18:39;;;;;;;29.73;17.65;;;;;;;;;;5037560;28;20034;-94
2020/12/14 02:21:05;;;;;;;28.55;16.63;;;;;;;;;;5040170;28;20030;-94
2020/12/14 02:23:32;;;;;;;29.25;17.40;;;;;;;;;;5040820;28;20036;-95
2020/12/14 02:25:58;;;;;;;31.17;17.05;;;;;;;;;;5039813;28;20037;-94
2020/12/14 02:28:24;;;;;;;27.73;17.17;;;;;;;;;;5040665;28;20052;-95
2020/12/14 02:30:50;;;;;;;31.42;17.15;;;;;;;;;;5040642;28;20028;-94
2020/12/14 02:33:16;;;;;;;30.00;17.13;;;;;;;;;;5039675;28;20034;-94
2020/12/14 02:35:45;;;;;;;30.05;16.98;;;;;;;;;;5039501;28;20025;-93
2020/12/14 02:38:11;;;;;;;30.65;18.08;;;;;;;;;;5040710;28;20032;-93
2020/12/14 02:40:37;;;;;;;29.13;16.38;;;;;;;;;;5039656;28;20461;-94
2020/12/14 02:43:03;;;;;;;30.95;18.20;;;;;;;;;;5039858;28;20063;-93
2020/12/14 02:45:29;;;;;;;31.33;17.85;;;;;;;;;;5040685;28;20104;-94
2020/12/14 02:47:55;;;;;;;32.95;18.42;;;;;;;;;;5040183;28;20040;-92
2020/12/14 02:50:22;;;;;;;29.15;17.13;;;;;;;;;;5039365;28;20468;-93
2020/12/14 02:52:48;;;;;;;30.73;18.05;;;;;;;;;;5040539;28;20037;-93
2020/12/14 02:55:14;;;;;;;33.90;18.42;;;;;;;;;;5040594;28;20018;-93
2020/12/14 02:57:40;;;;;;;28.80;16.92;;;;;;;;;;5039488;28;20061;-94
2020/12/14 03:00:06;;;;;;;32.55;17.98;;;;;;;;;;5040155;28;20033;-94
2020/12/14 03:02:32;;;;;;;35.30;18.67;;;;;;;;;;5039235;28;20033;-93
2020/12/14 03:04:58;;;;;;;33.95;17.52;;;;;;;;;;5040120;28;20446;-93
2020/12/14 03:07:25;;;;;;;35.35;19.48;;;;;;;;;;5040373;28;20352;-94
2020/12/14 03:09:51;;;;;;;33.72;18.92;;;;;;;;;;5039910;28;20029;-93
2020/12/14 03:12:17;;;;;;;34.72;18.45;;;;;;;;;;5040136;28;20096;-94
2020/12/14 03:14:43;;;;;;;31.92;17.75;;;;;;;;;;5039830;28;20030;-95
2020/12/14 03:17:09;;;;;;;30.75;17.65;;;;;;;;;;5039898;28;20056;-94
2020/12/14 03:19:35;;;;;;;30.65;18.08;;;;;;;;;;5040084;28;20033;-95
2020/12/14 03:22:01;;;;;;;28.52;17.20;;;;;;;;;;5039699;28;20025;-94
2020/12/14 03:24:27;;;;;;;29.33;17.42;;;;;;;;;;5039670;28;20051;-94
2020/12/14 03:26:53;;;;;;;26.20;16.08;;;;;;;;;;5039818;28;20026;-95
2020/12/14 03:29:19;;;;;;;30.95;17.90;;;;;;;;;;5039917;28;20033;-94
2020/12/14 03:31:45;;;;;;;26.50;15.40;;;;;;;;;;5037738;28;20045;-94
2020/12/14 03:34:12;;;;;;;29.95;16.88;;;;;;;;;;5039367;28;20057;-93
2020/12/14 03:36:38;;;;;;;27.13;16.45;;;;;;;;;;5039342;28;20073;-94
2020/12/14 03:39:07;;;;;;;25.42;15.63;;;;;;;;;;5039427;28;20081;-96
2020/12/14 03:41:33;;;;;;;25.23;16.40;;;;;;;;;;5039315;28;20032;-96
2020/12/14 03:43:59;;;;;;;25.27;16.27;;;;;;;;;;5039316;28;20049;-95
2020/12/14 03:47:02;;;;;;;27.33;17.00;;;;;;;;;;5039504;28;20359;-93
2020/12/14 03:49:28;;;;;;;24.92;15.80;;;;;;;;;;5039222;28;20053;-96
2020/12/14 03:51:55;;;;;;;24.98;15.45;;;;;;;;;;5039226;28;20396;-94
2020/12/14 03:54:21;;;;;;;27.00;16.05;;;;;;;;;;5039232;28;20026;-95
2020/12/14 03:56:47;;;;;;;26.38;16.63;;;;;;;;;;5038309;28;20028;-95
2020/12/14 03:59:13;;;;;;;24.58;15.48;;;;;;;;;;5039094;28;20037;-94
2020/12/14 04:01:40;;;;;;;25.58;16.13;;;;;;;;;;5037873;28;20045;-95
2020/12/14 04:04:06;;;;;;;25.85;16.15;;;;;;;;;;5038880;28;20033;-96
2020/12/14 04:06:32;;;;;;;27.73;16.83;;;;;;;;;;5038825;28;20029;-96
2020/12/14 04:08:58;;;;;;;28.02;16.77;;;;;;;;;;5039075;28;20025;-94
2020/12/14 04:11:24;;;;;;;30.23;17.08;;;;;;;;;;5039101;28;20034;-93
2020/12/14 04:13:50;;;;;;;31.60;17.63;;;;;;;;;;5039049;28;20297;-94
2020/12/14 04:16:16;;;;;;;30.60;19.05;;;;;;;;;;5037643;28;20080;-93
2020/12/14 04:18:43;;;;;;;30.98;18.58;;;;;;;;;;5038915;28;20029;-93
2020/12/14 04:21:09;;;;;;;30.20;18.73;;;;;;;;;;5038571;28;20013;-93
2020/12/14 04:23:36;;;;;;;28.83;16.65;;;;;;;;;;5038807;28;20037;-95
2020/12/14 04:26:02;;;;;;;27.30;16.48;;;;;;;;;;5038866;28;20028;-95
2020/12/14 04:28:28;;;;;;;28.63;17.73;;;;;;;;;;5038219;28;20026;-94
2020/12/14 04:30:54;;;;;;;27.65;17.73;;;;;;;;;;5038396;28;20029;-94
2020/12/14 04:33:20;;;;;;;27.65;18.25;;;;;;;;;;5038344;28;20049;-94
2020/12/14 04:35:46;;;;;;;25.52;15.70;;;;;;;;;;5038630;28;20022;-93
2020/12/14 04:38:12;;;;;;;27.00;15.65;;;;;;;;;;5038705;28;20021;-94
2020/12/14 04:40:39;;;;;;;27.05;16.08;;;;;;;;;;5038464;28;20021;-94
2020/12/14 04:43:08;;;;;;;25.88;15.43;;;;;;;;;;5038164;28;20021;-94
2020/12/14 04:45:35;;;;;;;27.08;16.25;;;;;;;;;;5038502;28;20067;-95
2020/12/14 04:51:04;;;;;;;28.10;17.27;;;;;;;;;;5038413;28;20101;-94
2020/12/14 04:53:31;;;;;;;26.10;16.45;;;;;;;;;;5038304;28;20018;-93
2020/12/14 04:55:57;;;;;;;23.50;15.18;;;;;;;;;;5037128;28;20026;-93
2020/12/14 04:58:23;;;;;;;26.30;15.55;;;;;;;;;;5037280;28;20064;-92
2020/12/14 05:00:49;;;;;;;27.02;15.50;;;;;;;;;;5037948;28;20049;-94
2020/12/14 05:03:15;;;;;;;22.58;14.20;;;;;;;;;;5038110;28;20038;-94
2020/12/14 05:05:41;;;;;;;25.65;15.93;;;;;;;;;;5037847;28;20026;-93
2020/12/14 05:08:07;;;;;;;26.70;16.05;;;;;;;;;;5036906;28;20422;-94
2020/12/14 05:10:33;;;;;;;26.55;16.50;;;;;;;;;;5037713;28;20400;-95
2020/12/14 05:13:09;;;;;;;30.13;16.30;;;;;;;;;;5037922;28;20025;-94
2020/12/14 05:15:40;;;;;;;23.33;14.35;;;;;;;;;;5036804;28;20095;-92
2020/12/14 05:21:09;;;;;;;18.80;12.65;;;;;;;;;;5037994;28;20028;-95
2020/12/14 05:23:38;;;;;;;19.17;12.15;;;;;;;;;;5037838;28;20030;-95
2020/12/14 05:26:04;;;;;;;19.65;12.93;;;;;;;;;;5037683;28;20035;-94
2020/12/14 05:28:30;;;;;;;22.27;13.85;;;;;;;;;;5037526;28;20347;-93
2020/12/14 05:30:56;;;;;;;24.35;14.50;;;;;;;;;;5037943;28;20073;-93
2020/12/14 05:33:24;;;;;;;23.75;15.00;;;;;;;;;;5036528;28;20036;-92
2020/12/14 05:35:50;;;;;;;49.42;27.80;;;;;;;;;;5036701;28;20068;-93
2020/12/14 05:38:17;;;;;;;41.80;22.73;;;;;;;;;;5037420;28;20021;-93
2020/12/14 05:40:45;;;;;;;28.63;17.42;;;;;;;;;;5036607;28;20408;-92
2020/12/14 05:43:12;;;;;;;35.35;24.70;;;;;;;;;;5036510;28;20053;-94
2020/12/14 05:45:39;;;;;;;37.30;23.75;;;;;;;;;;5037036;28;20026;-92
2020/12/14 05:48:21;;;;;;;54.95;33.70;;;;;;;;;;5036502;28;20451;-93
2020/12/14 05:50:49;;;;;;;47.92;29.95;;;;;;;;;;5037778;28;20079;-93
2020/12/14 05:53:19;;;;;;;31.88;21.60;;;;;;;;;;5037712;28;20351;-93
2020/12/14 05:55:46;;;;;;;31.05;17.85;;;;;;;;;;5041630;28;20028;-93
2020/12/14 05:58:15;;;;;;;26.58;16.70;;;;;;;;;;5041650;28;20044;-94
2020/12/14 06:00:46;;;;;;;24.35;14.35;;;;;;;;;;5040633;28;20420;-92
2020/12/14 06:03:32;;;;;;;27.73;14.40;;;;;;;;;;5041610;28;20049;-92
2020/12/14 06:06:02;;;;;;;21.63;14.05;;;;;;;;;;5040970;28;20045;-93
2020/12/14 06:08:46;;;;;;;24.05;13.70;;;;;;;;;;5041434;28;20025;-93
2020/12/14 06:11:16;;;;;;;22.38;13.98;;;;;;;;;;5041424;28;20029;-93
2020/12/14 06:13:50;;;;;;;25.40;14.77;;;;;;;;;;5040156;28;20048;-93
2020/12/14 06:22:23;;;;;;;43.83;24.95;;;;;;;;;;5040884;28;20060;-94
2020/12/14 06:24:55;;;;;;;27.27;16.63;;;;;;;;;;5040693;28;20048;-94
2020/12/14 06:27:21;;;;;;;30.23;18.48;;;;;;;;;;5040830;28;20372;-95
2020/12/14 06:29:48;;;;;;;27.83;17.95;;;;;;;;;;5040985;28;20018;-94
2020/12/14 06:32:32;;;;;;;45.55;24.63;;;;;;;;;;5041147;28;20045;-94
2020/12/14 06:34:58;;;;;;;34.33;19.92;;;;;;;;;;5040679;28;20033;-96
2020/12/14 06:37:25;;;;;;;27.70;17.48;;;;;;;;;;5039650;28;20024;-94
2020/12/14 06:39:58;;;;;;;35.70;20.35;;;;;;;;;;5039829;28;20026;-95
2020/12/14 06:42:25;;;;;;;36.85;21.20;;;;;;;;;;5040809;28;20037;-95
2020/12/14 06:44:51;;;;;;;40.33;22.75;;;;;;;;;;5039557;28;20044;-95
2020/12/14 06:53:43;;;;;;;41.53;24.35;;;;;;;;;;5040424;28;20040;-93
2020/12/14 06:56:09;;;;;;;97.10;49.90;;;;;;;;;;5040407;28;20033;-93
2020/12/14 06:58:37;;;;;;;84.85;43.85;;;;;;;;;;5040398;28;20026;-96
2020/12/14 07:01:04;;;;;;;108.60;56.20;;;;;;;;;;5040067;28;20125;-94
2020/12/14 07:03:52;;;;;;;59.30;34.75;;;;;;;;;;5039355;28;20034;-94
2020/12/14 07:06:25;;;;;;;38.20;24.50;;;;;;;;;;5039306;28;20026;-93
2020/12/14 07:08:51;;;;;;;33.55;19.98;;;;;;;;;;5040254;28;20367;-88
2020/12/14 07:11:19;;;;;;;33.03;20.15;;;;;;;;;;5040338;28;20048;-88
2020/12/14 07:13:45;;;;;;;33.90;21.30;;;;;;;;;;5039857;28;20432;-93
2020/12/14 07:16:12;;;;;;;32.40;19.58;;;;;;;;;;5040285;28;20026;-93
2020/12/14 07:18:39;;;;;;;33.72;21.08;;;;;;;;;;5040104;28;20031;-92
2020/12/14 07:21:24;;;;;;;37.55;23.27;;;;;;;;;;5039051;28;20112;-92
2020/12/14 07:23:52;;;;;;;45.95;26.10;;;;;;;;;;5039682;28;20025;-92
2020/12/14 07:26:18;;;;;;;44.75;26.77;;;;;;;;;;5039789;28;20029;-91
2020/12/14 07:28:48;;;;;;;40.00;25.05;;;;;;;;;;5039504;28;20427;-90
2020/12/14 07:31:23;;;;;;;45.65;25.33;;;;;;;;;;5039610;28;20042;-90
2020/12/14 07:33:53;;;;;;;35.47;22.08;;;;;;;;;;5039516;28;20355;-90
2020/12/14 07:36:20;;;;;;;41.05;23.00;;;;;;;;;;5038594;28;20060;-90
2020/12/14 07:38:47;;;;;;;37.90;21.90;;;;;;;;;;5039352;28;20060;-91
2020/12/14 07:41:13;;;;;;;35.35;21.67;;;;;;;;;;5039686;28;20018;-91
2020/12/14 07:43:47;;;;;;;35.25;21.75;;;;;;;;;;5038657;28;20037;-91
2020/12/14 07:46:20;;;;;;;34.08;20.90;;;;;;;;;;5039121;28;20041;-91
2020/12/14 07:48:53;;;;;;;36.08;20.02;;;;;;;;;;5039291;28;20064;-92
2020/12/14 07:51:19;;;;;;;35.45;20.08;;;;;;;;;;5039142;28;20112;-91
2020/12/14 07:53:46;;;;;;;33.75;19.83;;;;;;;;;;5038404;28;20037;-90
2020/12/14 07:56:12;;;;;;;30.85;19.50;;;;;;;;;;5039062;28;20026;-90
2020/12/14 07:58:45;;;;;;;31.67;18.95;;;;;;;;;;5039117;28;20017;-92
2020/12/14 08:01:18;;;;;;;35.83;19.05;;;;;;;;;;5038930;28;20045;-91
2020/12/14 08:03:44;;;;;;;29.48;17.27;;;;;;;;;;5039017;28;20022;-90
2020/12/14 08:06:11;;;;;;;30.40;18.00;;;;;;;;;;5039226;28;20091;-91
2020/12/14 08:08:38;;;;;;;33.72;19.30;;;;;;;;;;5038018;28;20041;-91
2020/12/14 08:11:04;;;;;;;37.78;21.67;;;;;;;;;;5038881;28;20021;-92
2020/12/14 08:13:31;;;;;;;36.03;21.08;;;;;;;;;;5038826;28;20021;-91
2020/12/14 08:15:57;;;;;;;41.00;21.48;;;;;;;;;;5038427;28;20026;-89
2020/12/14 08:18:23;;;;;;;41.00;22.67;;;;;;;;;;5038478;28;20323;-88
2020/12/14 08:20:52;;;;;;;54.83;25.13;;;;;;;;;;5038595;28;20021;-89
2020/12/14 08:23:18;;;;;;;69.00;32.70;;;;;;;;;;5037574;28;20029;-88
2020/12/14 08:25:45;;;;;;;65.57;40.13;;;;;;;;;;5057839;28;20021;-89
2020/12/14 08:28:11;;;;;;;85.18;49.60;;;;;;;;;;5058655;28;20304;-90
2020/12/14 08:30:39;;;;;;;62.60;37.63;;;;;;;;;;5058528;28;20036;-89
2020/12/14 08:33:09;;;;;;;91.90;38.92;;;;;;;;;;5058144;28;20025;-88
2020/12/14 08:35:36;;;;;;;88.03;33.97;;;;;;;;;;5058525;28;20021;-88
2020/12/14 08:38:13;;;;;;;106.95;41.75;;;;;;;;;;5057250;28;20021;-89
2020/12/14 08:40:39;;;;;;;51.70;29.02;;;;;;;;;;5057985;28;20013;-89
2020/12/14 08:43:12;;;;;;;64.72;34.40;;;;;;;;;;5057841;28;20040;-89
2020/12/14 08:45:57;;;;;;;40.90;24.83;;;;;;;;;;5057896;28;20067;-91
2020/12/14 08:48:23;;;;;;;42.85;26.00;;;;;;;;;;5058433;28;20053;-93
2020/12/14 08:50:50;;;;;;;47.97;26.42;;;;;;;;;;5057080;28;20029;-90
2020/12/14 08:53:23;;;;;;;47.95;26.52;;;;;;;;;;5057833;28;20036;-90
2020/12/14 08:55:49;;;;;;;44.35;24.92;;;;;;;;;;5057966;28;20029;-91
2020/12/14 08:58:15;;;;;;;49.60;26.25;;;;;;;;;;5057952;28;20108;-91
2020/12/14 09:00:41;;;;;;;44.70;24.50;;;;;;;;;;5056752;28;20056;-90
2020/12/14 09:03:07;;;;;;;41.00;24.25;;;;;;;;;;5055073;28;20021;-90
2020/12/14 09:05:34;;;;;;;40.85;23.33;;;;;;;;;;5055728;28;20040;-89
2020/12/14 09:08:10;;;;;;;39.88;22.90;;;;;;;;;;5057773;28;20079;-92
2020/12/14 09:10:36;;;;;;;39.78;22.75;;;;;;;;;;5058051;28;20029;-94
2020/12/14 09:13:05;;;;;;;54.72;27.02;;;;;;;;;;5057753;28;20029;-94
2020/12/14 09:15:32;;;;;;;46.20;24.23;;;;;;;;;;5056291;28;20021;-95
2020/12/14 09:18:02;;;;;;;54.15;24.73;;;;;;;;;;5057064;28;20409;-94
2020/12/14 09:20:28;;;;;;;41.03;22.50;;;;;;;;;;5057893;28;20327;-94
2020/12/14 09:22:54;;;;;;;43.22;22.60;;;;;;;;;;5057475;28;20032;-95
2020/12/14 09:25:20;;;;;;;61.15;26.45;;;;;;;;;;5056472;28;20029;-93
2020/12/14 09:27:46;;;;;;;52.05;25.90;;;;;;;;;;5057163;28;20060;-94
2020/12/14 09:30:12;;;;;;;50.03;26.75;;;;;;;;;;5056207;28;20033;-95
2020/12/14 09:32:38;;;;;;;62.72;34.60;;;;;;;;;;5057248;28;20036;-95
2020/12/14 09:35:05;;;;;;;120.30;77.93;;;;;;;;;;5056432;28;20028;-94
2020/12/14 09:37:32;;;;;;;69.43;47.20;;;;;;;;;;5057685;28;20017;-87
2020/12/14 09:40:01;;;;;;;67.82;47.60;;;;;;;;;;5057288;28;20396;-88
2020/12/14 09:42:27;;;;;;;62.85;41.28;;;;;;;;;;5055907;28;20033;-89
2020/12/14 09:44:53;;;;;;;48.83;32.83;;;;;;;;;;5057064;28;20399;-87
2020/12/14 09:47:19;;;;;;;52.17;31.73;;;;;;;;;;5049162;28;20418;-87
2020/12/14 09:49:45;;;;;;;61.90;39.03;;;;;;;;;;5037254;28;20030;-87
2020/12/14 09:52:11;;;;;;;72.90;39.95;;;;;;;;;;5036404;28;20353;-88
2020/12/14 09:54:37;;;;;;;72.22;40.92;;;;;;;;;;5036937;28;20022;-87
2020/12/14 09:57:04;;;;;;;119.95;55.58;;;;;;;;;;5037077;28;20057;-87
2020/12/14 09:59:30;;;;;;;74.28;39.90;;;;;;;;;;5036383;28;20025;-87
2020/12/14 10:01:56;;;;;;;108.05;56.65;;;;;;;;;;5036155;28;20148;-88
2020/12/14 10:04:22;;;;;;;63.40;36.35;;;;;;;;;;5037238;28;20026;-87
2020/12/14 10:06:49;;;;;;;65.45;35.80;;;;;;;;;;5036245;28;20132;-87
2020/12/14 10:09:15;;;;;;;84.00;42.30;;;;;;;;;;5036959;28;20025;-87
2020/12/14 10:11:41;;;;;;;90.93;45.53;;;;;;;;;;5036547;28;20033;-88
2020/12/14 10:14:08;;;;;;;97.45;47.15;;;;;;;;;;5036907;28;20091;-90
2020/12/14 10:16:49;;;;;;;139.07;52.38;;;;;;;;;;5044593;28;20037;-93
2020/12/14 10:19:16;;;;;;;119.28;45.85;;;;;;;;;;5047142;28;20085;-86
2020/12/14 12:06:01;;;;;;;96.03;50.60;;;;;;;;;;5051633;27;20349;-86
2020/12/14 12:08:27;;;;;;;88.00;43.83;;;;;;;;;;5051070;28;20071;-85
2020/12/14 12:10:53;;;;;;;120.68;55.25;;;;;;;;;;5049910;28;20129;-83
2020/12/14 12:13:19;;;;;;;119.47;58.42;;;;;;;;;;5050015;28;20024;-83
2020/12/14 12:15:46;;;;;;;128.30;64.20;;;;;;;;;;5050998;28;20419;-87
2020/12/14 12:18:12;;;;;;;141.55;76.70;;;;;;;;;;5050223;28;20017;-86
2020/12/14 12:20:38;;;;;;;73.47;40.80;;;;;;;;;;5051537;27;20037;-85
2020/12/14 12:23:04;;;;;;;79.90;41.33;;;;;;;;;;5050775;28;20050;-84
2020/12/14 12:25:30;;;;;;;67.50;35.70;;;;;;;;;;5050814;28;20096;-84
2020/12/14 12:27:56;;;;;;;96.50;50.15;;;;;;;;;;5051069;28;20025;-89
2020/12/14 12:30:23;;;;;;;74.85;40.72;;;;;;;;;;5051109;28;20025;-89
2020/12/14 12:33:03;;;;;;;65.57;36.88;;;;;;;;;;5050781;28;20091;-89
2020/12/14 12:35:29;;;;;;;62.60;35.13;;;;;;;;;;5032106;28;20042;-89
2020/12/14 12:37:55;;;;;;;63.28;35.83;;;;;;;;;;5029837;28;20089;-88
2020/12/14 12:40:21;;;;;;;67.22;37.75;;;;;;;;;;5030834;28;20408;-87
2020/12/14 12:42:48;;;;;;;73.20;37.83;;;;;;;;;;5031180;28;20028;-87
2020/12/14 12:45:14;;;;;;;67.28;38.05;;;;;;;;;;5030738;28;20446;-88
2020/12/14 12:47:40;;;;;;;58.58;34.67;;;;;;;;;;5030683;28;20100;-88
2020/12/14 12:50:06;;;;;;;61.25;35.22;;;;;;;;;;5029506;28;20022;-87
2020/12/14 12:52:32;;;;;;;97.55;51.88;;;;;;;;;;5030289;28;20034;-88
2020/12/14 12:54:58;;;;;;;108.60;51.42;;;;;;;;;;5030803;28;20051;-88
2020/12/14 12:57:24;;;;;;;131.45;63.75;;;;;;;;;;5030738;28;20040;-90
2020/12/14 12:59:50;;;;;;;152.35;74.75;;;;;;;;;;5029544;28;20041;-89
2020/12/14 13:02:16;;;;;;;81.40;40.63;;;;;;;;;;5030595;28;20064;-89
2020/12/14 13:04:42;;;;;;;99.07;48.13;;;;;;;;;;5029977;28;20060;-92
2020/12/14 13:07:08;;;;;;;85.22;43.63;;;;;;;;;;5016974;28;20393;-87
2020/12/14 13:09:35;;;;;;;90.47;45.08;;;;;;;;;;5017280;28;20026;-89
2020/12/14 13:12:01;;;;;;;74.95;36.67;;;;;;;;;;5017310;28;20030;-86
2020/12/14 13:14:27;;;;;;;66.65;33.15;;;;;;;;;;5017508;28;20022;-84
2020/12/14 13:16:53;;;;;;;60.80;31.85;;;;;;;;;;5017274;28;20022;-86
2020/12/14 13:19:19;;;;;;;111.55;35.80;;;;;;;;;;5017148;28;20432;-88
2020/12/14 13:22:04;;;;;;;76.75;37.78;;;;;;;;;;5016996;28;20030;-85
2020/12/14 13:24:30;;;;;;;1999.90;563.22;;;;;;;;;;5016982;28;20423;-85
2020/12/14 13:26:56;;;;;;;584.40;69.70;;;;;;;;;;5017181;28;20061;-84
2020/12/14 13:29:22;;;;;;;117.20;40.72;;;;;;;;;;5015972;28;20067;-85
2020/12/14 13:31:48;;;;;;;83.35;42.20;;;;;;;;;;5016955;28;20392;-85
2020/12/14 13:34:16;;;;;;;90.28;43.42;;;;;;;;;;5015764;28;20041;-85
2020/12/14 13:36:42;;;;;;;74.93;36.78;;;;;;;;;;5016825;28;20096;-85
2020/12/14 13:39:08;;;;;;;55.50;29.95;;;;;;;;;;5016887;28;20045;-85
2020/12/14 13:41:36;;;;;;;53.60;28.95;;;;;;;;;;5016833;28;20030;-85
2020/12/14 13:44:02;;;;;;;62.30;32.72;;;;;;;;;;5016660;28;20420;-84
2020/12/14 13:46:28;;;;;;;56.53;29.75;;;;;;;;;;5016825;28;20022;-87
2020/12/14 13:48:54;;;;;;;54.65;30.58;;;;;;;;;;5016291;28;20025;-85
2020/12/14 13:51:22;;;;;;;57.25;30.70;;;;;;;;;;5015565;28;20526;-85
2020/12/14 13:53:48;;;;;;;59.28;31.27;;;;;;;;;;5016581;28;20030;-83
2020/12/14 13:56:14;;;;;;;51.88;27.33;;;;;;;;;;5015474;28;20030;-83
2020/12/14 13:58:40;;;;;;;66.82;37.83;;;;;;;;;;5016386;28;20057;-84
2020/12/14 14:01:07;;;;;;;63.20;35.38;;;;;;;;;;5016702;28;20030;-83
2020/12/14 14:03:33;;;;;;;108.47;49.95;;;;;;;;;;5016393;28;20079;-84
2020/12/14 14:05:59;;;;;;;81.63;38.72;;;;;;;;;;5016271;28;20038;-83
2020/12/14 14:08:25;;;;;;;57.08;30.33;;;;;;;;;;5016125;28;20026;-84
2020/12/14 14:10:51;;;;;;;81.38;39.10;;;;;;;;;;5016253;28;20037;-84
2020/12/14 14:13:17;;;;;;;63.72;31.60;;;;;;;;;;5015981;28;20026;-83
2020/12/14 14:15:43;;;;;;;54.95;30.45;;;;;;;;;;5016312;28;20030;-83
2020/12/14 14:18:09;;;;;;;100.88;51.05;;;;;;;;;;5014869;28;20396;-83
2020/12/14 14:20:35;;;;;;;68.13;36.30;;;;;;;;;;5015227;28;20026;-84
2020/12/14 14:23:01;;;;;;;110.13;56.78;;;;;;;;;;5016185;28;20022;-83
2020/12/14 14:25:27;;;;;;;87.65;42.28;;;;;;;;;;5015959;28;20026;-83
2020/12/14 14:27:55;;;;;;;59.63;31.42;;;;;;;;;;5014903;28;20033;-84
2020/12/14 14:30:21;;;;;;;69.40;34.92;;;;;;;;;;5015793;28;20108;-85
2020/12/14 14:32:47;;;;;;;67.28;34.28;;;;;;;;;;5014907;28;20029;-84
2020/12/14 14:35:13;;;;;;;52.25;27.92;;;;;;;;;;5015317;28;20030;-84
2020/12/14 14:37:43;;;;;;;60.40;30.50;;;;;;;;;;5015632;28;20034;-85
2020/12/14 14:40:10;;;;;;;51.83;28.92;;;;;;;;;;5015201;28;20077;-84
2020/12/14 14:42:36;;;;;;;91.68;42.38;;;;;;;;;;5015635;28;20470;-84
2020/12/14 14:45:03;;;;;;;75.70;39.90;;;;;;;;;;5015751;28;20176;-85
2020/12/14 14:47:29;;;;;;;70.95;40.30;;;;;;;;;;5015898;28;20072;-84
2020/12/14 14:49:55;;;;;;;142.60;39.67;;;;;;;;;;5015738;28;20028;-83
2020/12/14 14:52:21;;;;;;;67.70;35.95;;;;;;;;;;5015550;28;20061;-84
2020/12/14 14:54:47;;;;;;;58.60;31.85;;;;;;;;;;5015549;28;20029;-83
2020/12/14 14:57:13;;;;;;;59.65;32.38;;;;;;;;;;5015760;28;20041;-84
2020/12/14 14:59:39;;;;;;;89.80;42.17;;;;;;;;;;5015322;28;20057;-84
2020/12/14 15:02:05;;;;;;;92.85;48.00;;;;;;;;;;5015654;28;20332;-84
2020/12/14 15:04:31;;;;;;;86.25;47.85;;;;;;;;;;5015144;28;20046;-83
2020/12/14 15:06:57;;;;;;;88.50;49.75;;;;;;;;;;5015545;28;20022;-83
2020/12/14 15:09:23;;;;;;;73.78;40.13;;;;;;;;;;5015316;28;20080;-84
2020/12/14 15:11:50;;;;;;;79.32;45.80;;;;;;;;;;5014369;28;20018;-84
2020/12/14 15:14:16;;;;;;;65.20;38.05;;;;;;;;;;5015225;28;20416;-84
2020/12/14 15:16:43;;;;;;;79.15;43.80;;;;;;;;;;5013927;28;20044;-83
2020/12/14 15:19:10;;;;;;;81.00;46.55;;;;;;;;;;4995622;28;20030;-83
2020/12/14 15:21:36;;;;;;;61.70;36.03;;;;;;;;;;4995520;28;20029;-83
2020/12/14 15:24:02;;;;;;;120.68;59.95;;;;;;;;;;4995619;28;20034;-83
2020/12/14 15:26:28;;;;;;;87.13;43.05;;;;;;;;;;4995495;28;20040;-83
2020/12/14 15:28:54;;;;;;;94.32;44.80;;;;;;;;;;4995029;28;20033;-83
2020/12/14 15:31:21;;;;;;;61.60;35.45;;;;;;;;;;4995787;28;20019;-83
2020/12/14 15:33:47;;;;;;;63.92;35.80;;;;;;;;;;4995353;28;20056;-83
2020/12/14 15:36:14;;;;;;;65.57;35.15;;;;;;;;;;4995616;28;20369;-83
2020/12/14 15:38:41;;;;;;;68.72;35.58;;;;;;;;;;4994627;28;20133;-84
2020/12/14 15:41:07;;;;;;;60.08;33.97;;;;;;;;;;4995246;28;20416;-83
2020/12/14 15:43:33;;;;;;;60.20;32.40;;;;;;;;;;4995503;28;20031;-84
2020/12/14 15:45:59;;;;;;;54.00;31.15;;;;;;;;;;4995386;28;20026;-84
2020/12/14 15:48:25;;;;;;;75.93;40.92;;;;;;;;;;4994111;28;20027;-84
2020/12/14 15:50:51;;;;;;;69.82;38.17;;;;;;;;;;4995414;28;20026;-84
2020/12/14 15:53:17;;;;;;;72.18;39.20;;;;;;;;;;4995270;28;20029;-84
2020/12/14 15:55:43;;;;;;;77.20;39.90;;;;;;;;;;4994178;28;20169;-84
2020/12/14 15:58:10;;;;;;;81.47;45.15;;;;;;;;;;4995301;28;20023;-84
2020/12/14 16:00:37;;;;;;;88.60;45.42;;;;;;;;;;4994262;28;20022;-84
2020/12/14 16:03:04;;;;;;;79.57;41.03;;;;;;;;;;4995185;28;20060;-84
2020/12/14 16:05:30;;;;;;;90.55;45.60;;;;;;;;;;4994963;28;20043;-84
2020/12/14 16:07:56;;;;;;;94.05;47.80;;;;;;;;;;4995072;28;20022;-84
2020/12/14 16:10:26;;;;;;;90.40;45.15;;;;;;;;;;4994956;28;20059;-83
2020/12/14 16:12:52;;;;;;;81.55;42.60;;;;;;;;;;4994996;28;20049;-83
2020/12/14 16:15:19;;;;;;;69.00;36.30;;;;;;;;;;4993833;28;20030;-83
2020/12/14 16:17:45;;;;;;;82.45;39.80;;;;;;;;;;4994731;28;20026;-83
2020/12/14 16:20:11;;;;;;;81.78;41.00;;;;;;;;;;4994852;28;20061;-83
2020/12/14 16:22:39;;;;;;;88.22;43.40;;;;;;;;;;4994864;28;20053;-84
2020/12/14 16:25:05;;;;;;;87.45;44.42;;;;;;;;;;4994913;28;20034;-84
2020/12/14 16:27:31;;;;;;;80.60;41.38;;;;;;;;;;4994783;28;20031;-84
2020/12/14 16:29:57;;;;;;;78.15;40.00;;;;;;;;;;4994825;28;20027;-84
2020/12/14 16:32:32;;;;;;;90.60;43.72;;;;;;;;;;4994601;28;20080;-84
2020/12/14 16:34:59;;;;;;;103.97;47.67;;;;;;;;;;4993959;28;20064;-84